sensor_id;sensor_type;location;lat;lon;timestamp;pressure;altitude;pressure_sealevel;temperature;humidity
58471;BME280;44258;51.288;12.068;2023-07-13T00:00:38;100173.47;;;23.11;38.89
58471;BME280;44258;51.288;12.068;2023-07-13T00:03:26;100180.00;;;23.10;38.23
58471;BME280;44258;51.288;12.068;2023-07-13T00:06:12;100182.22;;;23.07;38.12
58471;BME280;44258;51.288;12.068;2023-07-13T00:08:59;100186.34;;;23.03;37.96
58471;BME280;44258;51.288;12.068;2023-07-13T00:11:52;100189.25;;;22.93;38.25
58471;BME280;44258;51.288;12.068;2023-07-13T00:14:40;100195.25;;;23.05;38.28
58471;BME280;44258;51.288;12.068;2023-07-13T00:17:28;100192.31;;;23.06;38.21
58471;BME280;44258;51.288;12.068;2023-07-13T00:20:15;100201.75;;;22.96;38.54
58471;BME280;44258;51.288;12.068;2023-07-13T00:23:04;100202.97;;;23.01;38.51
58471;BME280;44258;51.288;12.068;2023-07-13T00:25:54;100206.38;;;23.03;38.42
58471;BME280;44258;51.288;12.068;2023-07-13T00:28:45;100209.13;;;22.95;38.64
58471;BME280;44258;51.288;12.068;2023-07-13T00:31:33;100211.72;;;22.97;38.67
58471;BME280;44258;51.288;12.068;2023-07-13T00:34:21;100210.31;;;22.84;39.32
58471;BME280;44258;51.288;12.068;2023-07-13T00:37:08;100223.13;;;22.76;39.80
58471;BME280;44258;51.288;12.068;2023-07-13T00:39:56;100236.84;;;22.76;40.09
58471;BME280;44258;51.288;12.068;2023-07-13T00:42:43;100251.25;;;22.78;40.26
58471;BME280;44258;51.288;12.068;2023-07-13T00:48:58;100238.25;;;22.88;39.69
58471;BME280;44258;51.288;12.068;2023-07-13T00:51:49;100239.44;;;22.77;39.49
58471;BME280;44258;51.288;12.068;2023-07-13T00:54:41;100248.88;;;22.40;41.04
58471;BME280;44258;51.288;12.068;2023-07-13T00:57:30;100242.56;;;22.48;40.79
58471;BME280;44258;51.288;12.068;2023-07-13T01:00:20;100243.44;;;22.48;40.61
58471;BME280;44258;51.288;12.068;2023-07-13T01:03:08;100242.44;;;22.58;40.31
58471;BME280;44258;51.288;12.068;2023-07-13T01:05:57;100241.41;;;22.59;40.21
58471;BME280;44258;51.288;12.068;2023-07-13T01:08:49;100236.97;;;22.58;39.75
58471;BME280;44258;51.288;12.068;2023-07-13T01:11:36;100247.41;;;22.62;39.92
58471;BME280;44258;51.288;12.068;2023-07-13T01:14:26;100242.59;;;22.56;39.85
58471;BME280;44258;51.288;12.068;2023-07-13T01:17:13;100230.00;;;22.37;40.15
58471;BME280;44258;51.288;12.068;2023-07-13T01:20:01;100241.16;;;22.36;40.35
58471;BME280;44258;51.288;12.068;2023-07-13T01:22:49;100246.47;;;22.37;40.21
58471;BME280;44258;51.288;12.068;2023-07-13T01:25:37;100236.69;;;22.35;40.35
58471;BME280;44258;51.288;12.068;2023-07-13T01:28:25;100232.59;;;22.39;40.34
58471;BME280;44258;51.288;12.068;2023-07-13T01:31:13;100257.56;;;22.27;40.35
58471;BME280;44258;51.288;12.068;2023-07-13T01:34:00;100253.66;;;22.04;40.73
58471;BME280;44258;51.288;12.068;2023-07-13T01:36:46;100247.69;;;22.08;40.62
58471;BME280;44258;51.288;12.068;2023-07-13T01:39:35;100252.72;;;22.13;40.58
58471;BME280;44258;51.288;12.068;2023-07-13T01:42:24;100244.84;;;22.18;40.63
58471;BME280;44258;51.288;12.068;2023-07-13T01:45:10;100256.34;;;22.22;40.16
58471;BME280;44258;51.288;12.068;2023-07-13T01:47:59;100250.53;;;21.99;40.60
58471;BME280;44258;51.288;12.068;2023-07-13T01:50:47;100254.25;;;21.63;41.30
58471;BME280;44258;51.288;12.068;2023-07-13T01:53:34;100249.84;;;21.70;41.05
58471;BME280;44258;51.288;12.068;2023-07-13T01:56:23;100247.19;;;21.35;41.93
58471;BME280;44258;51.288;12.068;2023-07-13T01:59:10;100254.19;;;21.37;42.01
58471;BME280;44258;51.288;12.068;2023-07-13T02:01:57;100254.19;;;21.55;41.91
58471;BME280;44258;51.288;12.068;2023-07-13T02:04:44;100252.28;;;21.56;41.60
58471;BME280;44258;51.288;12.068;2023-07-13T02:07:31;100257.09;;;21.18;42.86
58471;BME280;44258;51.288;12.068;2023-07-13T02:10:19;100253.91;;;21.40;42.22
58471;BME280;44258;51.288;12.068;2023-07-13T02:13:08;100263.19;;;21.47;42.21
58471;BME280;44258;51.288;12.068;2023-07-13T02:15:54;100265.69;;;21.59;41.86
58471;BME280;44258;51.288;12.068;2023-07-13T02:18:41;100263.47;;;21.62;41.98
58471;BME280;44258;51.288;12.068;2023-07-13T02:21:28;100265.03;;;21.65;42.23
58471;BME280;44258;51.288;12.068;2023-07-13T02:24:15;100260.03;;;21.60;42.17
58471;BME280;44258;51.288;12.068;2023-07-13T02:27:05;100256.75;;;21.57;41.97
58471;BME280;44258;51.288;12.068;2023-07-13T02:29:53;100260.50;;;21.56;42.30
58471;BME280;44258;51.288;12.068;2023-07-13T02:32:40;100255.72;;;21.58;42.25
58471;BME280;44258;51.288;12.068;2023-07-13T02:35:30;100258.09;;;21.52;42.72
58471;BME280;44258;51.288;12.068;2023-07-13T02:38:18;100258.81;;;21.55;42.32
58471;BME280;44258;51.288;12.068;2023-07-13T02:41:06;100257.25;;;21.52;42.62
58471;BME280;44258;51.288;12.068;2023-07-13T02:43:54;100259.59;;;21.47;42.72
58471;BME280;44258;51.288;12.068;2023-07-13T02:46:49;100249.63;;;21.38;43.08
58471;BME280;44258;51.288;12.068;2023-07-13T02:49:36;100243.81;;;21.41;42.69
58471;BME280;44258;51.288;12.068;2023-07-13T02:52:23;100248.50;;;21.30;43.34
58471;BME280;44258;51.288;12.068;2023-07-13T02:55:10;100254.31;;;21.27;43.26
58471;BME280;44258;51.288;12.068;2023-07-13T02:57:56;100248.91;;;21.18;43.36
58471;BME280;44258;51.288;12.068;2023-07-13T03:00:44;100247.09;;;21.08;43.72
58471;BME280;44258;51.288;12.068;2023-07-13T03:03:33;100259.28;;;20.96;44.17
58471;BME280;44258;51.288;12.068;2023-07-13T03:06:20;100259.69;;;21.01;44.07
58471;BME280;44258;51.288;12.068;2023-07-13T03:09:08;100265.69;;;21.05;43.88
58471;BME280;44258;51.288;12.068;2023-07-13T03:11:55;100265.69;;;21.05;43.94
58471;BME280;44258;51.288;12.068;2023-07-13T03:14:42;100267.25;;;21.07;43.91
58471;BME280;44258;51.288;12.068;2023-07-13T03:17:28;100272.78;;;20.98;44.32
58471;BME280;44258;51.288;12.068;2023-07-13T03:20:17;100267.72;;;20.85;44.51
58471;BME280;44258;51.288;12.068;2023-07-13T03:23:04;100272.22;;;20.76;44.73
58471;BME280;44258;51.288;12.068;2023-07-13T03:26:01;100269.47;;;20.76;44.41
58471;BME280;44258;51.288;12.068;2023-07-13T03:28:48;100270.59;;;20.83;43.89
58471;BME280;44258;51.288;12.068;2023-07-13T03:31:36;100275.97;;;20.75;43.97
58471;BME280;44258;51.288;12.068;2023-07-13T03:34:24;100283.75;;;20.70;44.30
58471;BME280;44258;51.288;12.068;2023-07-13T03:37:13;100285.69;;;20.60;44.99
58471;BME280;44258;51.288;12.068;2023-07-13T03:40:00;100297.09;;;20.45;45.00
58471;BME280;44258;51.288;12.068;2023-07-13T03:42:46;100297.41;;;20.52;45.35
58471;BME280;44258;51.288;12.068;2023-07-13T03:45:33;100296.13;;;20.37;45.36
58471;BME280;44258;51.288;12.068;2023-07-13T03:48:20;100297.72;;;20.29;46.30
58471;BME280;44258;51.288;12.068;2023-07-13T03:51:07;100295.59;;;20.23;46.22
58471;BME280;44258;51.288;12.068;2023-07-13T03:53:56;100301.50;;;20.28;46.06
58471;BME280;44258;51.288;12.068;2023-07-13T03:56:43;100308.47;;;20.41;45.65
58471;BME280;44258;51.288;12.068;2023-07-13T03:59:29;100300.00;;;20.71;45.33
58471;BME280;44258;51.288;12.068;2023-07-13T04:02:16;100309.13;;;20.62;45.71
58471;BME280;44258;51.288;12.068;2023-07-13T04:05:04;100303.34;;;20.65;45.78
58471;BME280;44258;51.288;12.068;2023-07-13T04:07:50;100302.19;;;20.68;45.78
58471;BME280;44258;51.288;12.068;2023-07-13T04:10:39;100315.34;;;20.55;46.60
58471;BME280;44258;51.288;12.068;2023-07-13T04:13:26;100309.47;;;20.40;47.00
58471;BME280;44258;51.288;12.068;2023-07-13T04:16:14;100315.06;;;20.48;46.53
58471;BME280;44258;51.288;12.068;2023-07-13T04:19:01;100315.06;;;20.48;46.74
58471;BME280;44258;51.288;12.068;2023-07-13T04:21:48;100320.81;;;20.45;46.93
58471;BME280;44258;51.288;12.068;2023-07-13T04:24:35;100309.53;;;20.67;46.63
58471;BME280;44258;51.288;12.068;2023-07-13T04:27:23;100314.13;;;20.67;46.37
58471;BME280;44258;51.288;12.068;2023-07-13T04:30:10;100305.09;;;20.66;46.16
58471;BME280;44258;51.288;12.068;2023-07-13T04:32:57;100309.22;;;20.70;46.02
58471;BME280;44258;51.288;12.068;2023-07-13T04:35:44;100306.88;;;20.76;46.52
58471;BME280;44258;51.288;12.068;2023-07-13T04:38:32;100310.38;;;20.68;46.48
58471;BME280;44258;51.288;12.068;2023-07-13T04:41:20;100305.38;;;20.63;46.73
58471;BME280;44258;51.288;12.068;2023-07-13T04:44:09;100307.91;;;20.75;46.78
58471;BME280;44258;51.288;12.068;2023-07-13T04:46:56;100305.81;;;20.86;46.59
58471;BME280;44258;51.288;12.068;2023-07-13T04:49:43;100311.22;;;20.96;46.47
58471;BME280;44258;51.288;12.068;2023-07-13T04:52:31;100310.50;;;20.94;46.99
58471;BME280;44258;51.288;12.068;2023-07-13T04:55:19;100307.25;;;21.08;46.26
58471;BME280;44258;51.288;12.068;2023-07-13T04:58:06;100313.19;;;21.22;46.02
58471;BME280;44258;51.288;12.068;2023-07-13T05:00:59;100314.81;;;21.14;45.88
58471;BME280;44258;51.288;12.068;2023-07-13T05:03:46;100320.22;;;21.24;45.75
58471;BME280;44258;51.288;12.068;2023-07-13T05:06:32;100317.22;;;21.27;45.81
58471;BME280;44258;51.288;12.068;2023-07-13T05:09:19;100327.97;;;21.29;45.66
58471;BME280;44258;51.288;12.068;2023-07-13T05:12:08;100320.56;;;21.21;46.27
58471;BME280;44258;51.288;12.068;2023-07-13T05:14:55;100325.25;;;21.29;45.94
58471;BME280;44258;51.288;12.068;2023-07-13T05:17:43;100324.69;;;21.25;46.07
58471;BME280;44258;51.288;12.068;2023-07-13T05:20:30;100320.56;;;21.39;46.05
58471;BME280;44258;51.288;12.068;2023-07-13T05:23:17;100319.47;;;21.50;45.66
58471;BME280;44258;51.288;12.068;2023-07-13T05:26:06;100323.00;;;21.42;46.42
58471;BME280;44258;51.288;12.068;2023-07-13T05:28:56;100330.25;;;21.51;46.26
58471;BME280;44258;51.288;12.068;2023-07-13T05:31:43;100334.63;;;21.62;46.14
58471;BME280;44258;51.288;12.068;2023-07-13T05:34:31;100335.00;;;21.67;46.48
58471;BME280;44258;51.288;12.068;2023-07-13T05:37:19;100327.16;;;21.90;46.20
58471;BME280;44258;51.288;12.068;2023-07-13T05:40:07;100338.75;;;22.10;45.96
58471;BME280;44258;51.288;12.068;2023-07-13T05:42:54;100332.53;;;22.26;44.99
58471;BME280;44258;51.288;12.068;2023-07-13T05:45:41;100336.41;;;22.42;44.14
58471;BME280;44258;51.288;12.068;2023-07-13T05:48:27;100338.63;;;22.46;44.07
58471;BME280;44258;51.288;12.068;2023-07-13T05:51:16;100339.34;;;22.48;44.11
58471;BME280;44258;51.288;12.068;2023-07-13T05:54:03;100341.41;;;22.55;44.29
58471;BME280;44258;51.288;12.068;2023-07-13T05:56:49;100347.75;;;22.55;44.08
58471;BME280;44258;51.288;12.068;2023-07-13T05:59:36;100351.22;;;22.65;44.03
58471;BME280;44258;51.288;12.068;2023-07-13T06:02:23;100357.06;;;22.62;44.54
58471;BME280;44258;51.288;12.068;2023-07-13T06:05:11;100352.88;;;22.76;44.99
58471;BME280;44258;51.288;12.068;2023-07-13T06:08:00;100353.44;;;23.04;44.39
58471;BME280;44258;51.288;12.068;2023-07-13T06:10:47;100350.94;;;23.19;44.28
58471;BME280;44258;51.288;12.068;2023-07-13T06:13:35;100358.50;;;23.33;44.13
58471;BME280;44258;51.288;12.068;2023-07-13T06:16:22;100347.06;;;23.63;43.24
58471;BME280;44258;51.288;12.068;2023-07-13T06:19:09;100339.00;;;23.69;43.48
58471;BME280;44258;51.288;12.068;2023-07-13T06:21:56;100353.22;;;24.14;42.36
58471;BME280;44258;51.288;12.068;2023-07-13T06:24:46;100358.34;;;24.34;42.14
58471;BME280;44258;51.288;12.068;2023-07-13T06:27:33;100357.22;;;24.67;41.59
58471;BME280;44258;51.288;12.068;2023-07-13T06:30:19;100359.78;;;24.77;39.44
58471;BME280;44258;51.288;12.068;2023-07-13T06:33:06;100355.91;;;25.26;36.91
58471;BME280;44258;51.288;12.068;2023-07-13T06:35:53;100353.03;;;25.50;35.83
58471;BME280;44258;51.288;12.068;2023-07-13T06:38:41;100357.59;;;25.35;35.56
58471;BME280;44258;51.288;12.068;2023-07-13T06:41:29;100359.25;;;25.44;35.33
58471;BME280;44258;51.288;12.068;2023-07-13T06:44:17;100362.38;;;25.41;35.14
58471;BME280;44258;51.288;12.068;2023-07-13T06:47:04;100361.63;;;25.24;34.81
58471;BME280;44258;51.288;12.068;2023-07-13T06:49:51;100362.13;;;25.20;35.60
58471;BME280;44258;51.288;12.068;2023-07-13T06:52:39;100362.88;;;25.68;34.48
58471;BME280;44258;51.288;12.068;2023-07-13T06:55:26;100367.63;;;26.20;34.20
58471;BME280;44258;51.288;12.068;2023-07-13T06:58:15;100369.91;;;26.46;33.39
58471;BME280;44258;51.288;12.068;2023-07-13T07:01:02;100374.00;;;26.50;33.07
58471;BME280;44258;51.288;12.068;2023-07-13T07:03:49;100377.31;;;26.31;33.49
58471;BME280;44258;51.288;12.068;2023-07-13T07:06:36;100381.00;;;25.39;34.63
58471;BME280;44258;51.288;12.068;2023-07-13T07:09:23;100380.25;;;25.45;35.38
58471;BME280;44258;51.288;12.068;2023-07-13T07:12:10;100381.72;;;24.94;33.33
58471;BME280;44258;51.288;12.068;2023-07-13T07:14:58;100385.75;;;24.75;33.84
58471;BME280;44258;51.288;12.068;2023-07-13T07:17:45;100384.75;;;25.07;33.89
58471;BME280;44258;51.288;12.068;2023-07-13T07:20:34;100390.34;;;24.90;34.02
58471;BME280;44258;51.288;12.068;2023-07-13T07:23:21;100394.81;;;25.23;33.73
58471;BME280;44258;51.288;12.068;2023-07-13T07:26:08;100394.69;;;25.70;33.33
58471;BME280;44258;51.288;12.068;2023-07-13T07:28:55;100383.66;;;26.17;33.07
58471;BME280;44258;51.288;12.068;2023-07-13T07:31:45;100390.81;;;26.41;32.55
58471;BME280;44258;51.288;12.068;2023-07-13T07:34:32;100392.50;;;26.65;32.22
58471;BME280;44258;51.288;12.068;2023-07-13T07:37:18;100387.88;;;26.57;31.12
58471;BME280;44258;51.288;12.068;2023-07-13T07:40:07;100386.50;;;26.61;31.19
58471;BME280;44258;51.288;12.068;2023-07-13T07:42:55;100386.94;;;26.95;30.79
58471;BME280;44258;51.288;12.068;2023-07-13T07:45:44;100395.44;;;26.78;30.16
58471;BME280;44258;51.288;12.068;2023-07-13T07:48:33;100389.69;;;27.09;30.45
58471;BME280;44258;51.288;12.068;2023-07-13T07:51:20;100382.34;;;27.53;29.45
58471;BME280;44258;51.288;12.068;2023-07-13T07:54:06;100392.00;;;28.07;29.77
58471;BME280;44258;51.288;12.068;2023-07-13T07:56:53;100386.50;;;28.35;27.70
58471;BME280;44258;51.288;12.068;2023-07-13T07:59:43;100392.31;;;28.40;28.15
58471;BME280;44258;51.288;12.068;2023-07-13T08:02:30;100389.91;;;28.65;27.39
58471;BME280;44258;51.288;12.068;2023-07-13T08:05:18;100390.72;;;28.59;27.54
58471;BME280;44258;51.288;12.068;2023-07-13T08:08:06;100392.53;;;28.74;27.60
58471;BME280;44258;51.288;12.068;2023-07-13T08:10:53;100399.13;;;28.73;27.35
58471;BME280;44258;51.288;12.068;2023-07-13T08:13:40;100396.13;;;28.39;28.59
58471;BME280;44258;51.288;12.068;2023-07-13T08:16:27;100393.47;;;28.53;28.01
58471;BME280;44258;51.288;12.068;2023-07-13T08:19:14;100396.59;;;28.43;27.94
58471;BME280;44258;51.288;12.068;2023-07-13T08:22:03;100402.13;;;28.78;27.75
58471;BME280;44258;51.288;12.068;2023-07-13T08:24:49;100401.16;;;28.57;28.02
58471;BME280;44258;51.288;12.068;2023-07-13T08:27:43;100402.97;;;27.94;28.14
58471;BME280;44258;51.288;12.068;2023-07-13T08:30:30;100388.81;;;28.32;28.15
58471;BME280;44258;51.288;12.068;2023-07-13T08:33:17;100397.44;;;29.13;27.92
58471;BME280;44258;51.288;12.068;2023-07-13T08:36:09;100399.88;;;29.43;27.16
58471;BME280;44258;51.288;12.068;2023-07-13T08:38:57;100399.91;;;29.49;27.15
58471;BME280;44258;51.288;12.068;2023-07-13T08:41:45;100399.88;;;29.43;27.32
58471;BME280;44258;51.288;12.068;2023-07-13T08:44:43;100402.22;;;29.46;27.73
58471;BME280;44258;51.288;12.068;2023-07-13T08:47:38;100398.78;;;28.89;27.56
58471;BME280;44258;51.288;12.068;2023-07-13T08:50:31;100398.22;;;28.65;27.86
58471;BME280;44258;51.288;12.068;2023-07-13T08:53:22;100388.78;;;28.53;28.02
58471;BME280;44258;51.288;12.068;2023-07-13T08:56:16;100402.28;;;28.69;27.76
58471;BME280;44258;51.288;12.068;2023-07-13T08:59:11;100400.44;;;27.77;28.36
58471;BME280;44258;51.288;12.068;2023-07-13T09:02:16;100399.38;;;27.93;28.72
58471;BME280;44258;51.288;12.068;2023-07-13T09:05:10;100400.06;;;28.02;28.58
58471;BME280;44258;51.288;12.068;2023-07-13T09:08:10;100394.72;;;28.00;28.47
58471;BME280;44258;51.288;12.068;2023-07-13T09:11:12;100394.53;;;28.02;28.54
58471;BME280;44258;51.288;12.068;2023-07-13T09:14:22;100391.81;;;27.65;29.04
58471;BME280;44258;51.288;12.068;2023-07-13T09:17:18;100386.63;;;27.77;28.66
58471;BME280;44258;51.288;12.068;2023-07-13T09:20:19;100379.38;;;27.33;29.13
58471;BME280;44258;51.288;12.068;2023-07-13T09:23:13;100386.38;;;26.84;29.57
58471;BME280;44258;51.288;12.068;2023-07-13T09:26:05;100390.94;;;26.92;30.02
58471;BME280;44258;51.288;12.068;2023-07-13T09:28:57;100392.47;;;27.09;29.57
58471;BME280;44258;51.288;12.068;2023-07-13T09:31:49;100390.19;;;26.68;29.70
58471;BME280;44258;51.288;12.068;2023-07-13T09:34:39;100397.03;;;27.02;29.61
58471;BME280;44258;51.288;12.068;2023-07-13T09:37:30;100393.00;;;27.35;28.85
58471;BME280;44258;51.288;12.068;2023-07-13T09:40:24;100395.06;;;27.90;28.66
58471;BME280;44258;51.288;12.068;2023-07-13T09:43:14;100391.94;;;28.22;27.68
58471;BME280;44258;51.288;12.068;2023-07-13T09:46:02;100395.75;;;28.84;27.14
58471;BME280;44258;51.288;12.068;2023-07-13T09:48:51;100388.69;;;29.09;24.20
58471;BME280;44258;51.288;12.068;2023-07-13T09:51:41;100409.53;;;29.05;25.92
58471;BME280;44258;51.288;12.068;2023-07-13T09:54:28;100400.34;;;28.98;27.53
58471;BME280;44258;51.288;12.068;2023-07-13T09:57:19;100409.13;;;29.08;27.69
58471;BME280;44258;51.288;12.068;2023-07-13T10:00:21;100405.72;;;28.72;27.85
58471;BME280;44258;51.288;12.068;2023-07-13T10:03:17;100403.56;;;29.08;27.27
58471;BME280;44258;51.288;12.068;2023-07-13T10:06:15;100406.16;;;29.10;26.65
58471;BME280;44258;51.288;12.068;2023-07-13T10:09:02;100410.88;;;28.46;27.91
58471;BME280;44258;51.288;12.068;2023-07-13T10:11:50;100407.44;;;27.95;28.29
58471;BME280;44258;51.288;12.068;2023-07-13T10:14:37;100403.81;;;27.94;27.97
58471;BME280;44258;51.288;12.068;2023-07-13T10:17:31;100409.50;;;27.28;28.92
58471;BME280;44258;51.288;12.068;2023-07-13T10:20:18;100413.63;;;27.39;28.25
58471;BME280;44258;51.288;12.068;2023-07-13T10:23:13;100415.28;;;27.03;28.97
58471;BME280;44258;51.288;12.068;2023-07-13T10:26:15;100414.34;;;26.96;28.58
58471;BME280;44258;51.288;12.068;2023-07-13T10:29:07;100410.72;;;27.10;28.46
58471;BME280;44258;51.288;12.068;2023-07-13T10:31:57;100410.06;;;27.08;28.16
58471;BME280;44258;51.288;12.068;2023-07-13T10:34:46;100410.97;;;27.67;28.13
58471;BME280;44258;51.288;12.068;2023-07-13T10:37:42;100405.19;;;28.05;27.55
58471;BME280;44258;51.288;12.068;2023-07-13T10:40:36;100407.84;;;28.41;27.09
58471;BME280;44258;51.288;12.068;2023-07-13T10:43:26;100407.91;;;28.83;26.28
58471;BME280;44258;51.288;12.068;2023-07-13T10:46:19;100419.41;;;28.86;25.92
58471;BME280;44258;51.288;12.068;2023-07-13T10:49:08;100417.91;;;27.99;26.73
58471;BME280;44258;51.288;12.068;2023-07-13T10:51:57;100409.19;;;27.59;26.87
58471;BME280;44258;51.288;12.068;2023-07-13T10:54:45;100413.19;;;27.78;27.23
58471;BME280;44258;51.288;12.068;2023-07-13T10:57:41;100408.75;;;28.48;26.79
58471;BME280;44258;51.288;12.068;2023-07-13T11:00:43;100408.56;;;28.50;26.16
58471;BME280;44258;51.288;12.068;2023-07-13T11:03:32;100407.66;;;28.43;25.38
58471;BME280;44258;51.288;12.068;2023-07-13T11:06:33;100418.63;;;28.08;25.83
58471;BME280;44258;51.288;12.068;2023-07-13T11:09:35;100418.78;;;28.28;26.13
58471;BME280;44258;51.288;12.068;2023-07-13T11:15:47;100414.44;;;28.19;25.01
58471;BME280;44258;51.288;12.068;2023-07-13T11:18:35;100398.50;;;28.21;25.00
58471;BME280;44258;51.288;12.068;2023-07-13T11:21:25;100408.16;;;28.53;24.73
58471;BME280;44258;51.288;12.068;2023-07-13T11:24:17;100406.03;;;28.55;24.48
58471;BME280;44258;51.288;12.068;2023-07-13T11:27:20;100405.53;;;29.15;25.43
58471;BME280;44258;51.288;12.068;2023-07-13T11:30:35;100408.16;;;29.36;23.83
58471;BME280;44258;51.288;12.068;2023-07-13T11:33:24;100397.63;;;29.05;23.00
58471;BME280;44258;51.288;12.068;2023-07-13T11:36:15;100402.16;;;28.84;23.52
58471;BME280;44258;51.288;12.068;2023-07-13T11:39:05;100400.13;;;28.65;23.82
58471;BME280;44258;51.288;12.068;2023-07-13T11:42:00;100395.16;;;28.54;23.55
58471;BME280;44258;51.288;12.068;2023-07-13T11:44:49;100382.72;;;28.15;23.95
58471;BME280;44258;51.288;12.068;2023-07-13T11:47:39;100385.13;;;28.46;24.53
58471;BME280;44258;51.288;12.068;2023-07-13T11:50:27;100401.25;;;28.71;23.34
58471;BME280;44258;51.288;12.068;2023-07-13T11:53:14;100393.03;;;28.90;23.55
58471;BME280;44258;51.288;12.068;2023-07-13T11:56:01;100398.09;;;28.80;23.49
58471;BME280;44258;51.288;12.068;2023-07-13T11:58:50;100397.56;;;28.63;24.03
58471;BME280;44258;51.288;12.068;2023-07-13T12:01:46;100397.84;;;29.10;23.42
58471;BME280;44258;51.288;12.068;2023-07-13T12:04:37;100399.59;;;29.18;23.53
58471;BME280;44258;51.288;12.068;2023-07-13T12:07:24;100394.22;;;29.03;23.90
58471;BME280;44258;51.288;12.068;2023-07-13T12:10:18;100386.00;;;29.36;23.88
58471;BME280;44258;51.288;12.068;2023-07-13T12:13:08;100392.56;;;29.28;23.00
58471;BME280;44258;51.288;12.068;2023-07-13T12:15:58;100401.81;;;28.94;23.00
58471;BME280;44258;51.288;12.068;2023-07-13T12:18:45;100399.53;;;28.69;23.88
58471;BME280;44258;51.288;12.068;2023-07-13T12:21:37;100402.53;;;28.75;24.13
58471;BME280;44258;51.288;12.068;2023-07-13T12:24:25;100398.88;;;28.67;23.98
58471;BME280;44258;51.288;12.068;2023-07-13T12:27:22;100397.03;;;28.46;24.42
58471;BME280;44258;51.288;12.068;2023-07-13T12:30:24;100399.13;;;28.38;23.95
58471;BME280;44258;51.288;12.068;2023-07-13T12:33:12;100402.56;;;27.97;24.61
58471;BME280;44258;51.288;12.068;2023-07-13T12:36:02;100399.28;;;28.08;24.58
58471;BME280;44258;51.288;12.068;2023-07-13T12:38:51;100399.47;;;28.35;24.56
58471;BME280;44258;51.288;12.068;2023-07-13T12:41:38;100410.88;;;28.46;23.40
58471;BME280;44258;51.288;12.068;2023-07-13T12:44:28;100404.44;;;28.39;24.03
58471;BME280;44258;51.288;12.068;2023-07-13T12:47:15;100397.25;;;28.23;23.57
58471;BME280;44258;51.288;12.068;2023-07-13T12:50:04;100398.72;;;28.19;24.16
58471;BME280;44258;51.288;12.068;2023-07-13T12:52:53;100396.03;;;28.54;23.52
58471;BME280;44258;51.288;12.068;2023-07-13T12:55:46;100396.09;;;29.02;23.04
58471;BME280;44258;51.288;12.068;2023-07-13T12:58:37;100403.44;;;28.47;23.26
58471;BME280;44258;51.288;12.068;2023-07-13T13:01:27;100392.00;;;28.28;23.50
58471;BME280;44258;51.288;12.068;2023-07-13T13:04:15;100397.72;;;28.27;24.95
58471;BME280;44258;51.288;12.068;2023-07-13T13:07:10;100405.91;;;28.70;23.95
58471;BME280;44258;51.288;12.068;2023-07-13T13:09:57;100407.59;;;28.36;24.25
58471;BME280;44258;51.288;12.068;2023-07-13T13:12:46;100405.69;;;28.65;24.34
58471;BME280;44258;51.288;12.068;2023-07-13T13:15:34;100415.13;;;28.84;23.96
58471;BME280;44258;51.288;12.068;2023-07-13T13:18:23;100396.44;;;28.29;24.69
58471;BME280;44258;51.288;12.068;2023-07-13T13:21:10;100396.84;;;28.48;24.07
58471;BME280;44258;51.288;12.068;2023-07-13T13:23:58;100397.81;;;28.12;24.34
58471;BME280;44258;51.288;12.068;2023-07-13T13:26:45;100394.75;;;28.28;24.34
58471;BME280;44258;51.288;12.068;2023-07-13T13:29:38;100391.66;;;28.38;23.83
58471;BME280;44258;51.288;12.068;2023-07-13T13:32:25;100404.66;;;29.07;23.65
58471;BME280;44258;51.288;12.068;2023-07-13T13:35:20;100402.38;;;29.24;23.56
58471;BME280;44258;51.288;12.068;2023-07-13T13:38:12;100419.63;;;29.26;23.24
58471;BME280;44258;51.288;12.068;2023-07-13T13:40:59;100408.78;;;29.32;22.33
58471;BME280;44258;51.288;12.068;2023-07-13T13:43:46;100415.72;;;29.01;22.66
58471;BME280;44258;51.288;12.068;2023-07-13T13:46:35;100427.22;;;28.76;23.43
58471;BME280;44258;51.288;12.068;2023-07-13T13:49:24;100424.19;;;28.64;23.59
58471;BME280;44258;51.288;12.068;2023-07-13T13:52:11;100422.09;;;28.66;23.35
58471;BME280;44258;51.288;12.068;2023-07-13T13:54:58;100421.16;;;28.59;23.65
58471;BME280;44258;51.288;12.068;2023-07-13T13:57:46;100425.69;;;28.67;23.87
58471;BME280;44258;51.288;12.068;2023-07-13T14:00:33;100418.16;;;28.54;23.84
58471;BME280;44258;51.288;12.068;2023-07-13T14:03:22;100409.03;;;28.32;23.86
58471;BME280;44258;51.288;12.068;2023-07-13T14:06:11;100414.66;;;28.39;25.08
58471;BME280;44258;51.288;12.068;2023-07-13T14:08:59;100419.16;;;28.75;24.26
58471;BME280;44258;51.288;12.068;2023-07-13T14:11:48;100423.03;;;29.22;24.15
58471;BME280;44258;51.288;12.068;2023-07-13T14:14:36;100422.28;;;29.48;23.80
58471;BME280;44258;51.288;12.068;2023-07-13T14:17:25;100423.69;;;29.24;23.01
58471;BME280;44258;51.288;12.068;2023-07-13T14:20:15;100419.41;;;29.21;23.28
58471;BME280;44258;51.288;12.068;2023-07-13T14:23:03;100418.47;;;29.56;22.59
58471;BME280;44258;51.288;12.068;2023-07-13T14:25:50;100406.34;;;29.63;23.10
58471;BME280;44258;51.288;12.068;2023-07-13T14:28:39;100415.19;;;29.32;22.08
58471;BME280;44258;51.288;12.068;2023-07-13T14:31:30;100413.44;;;29.24;22.62
58471;BME280;44258;51.288;12.068;2023-07-13T14:34:17;100406.13;;;29.65;22.11
58471;BME280;44258;51.288;12.068;2023-07-13T14:37:12;100407.03;;;29.79;21.89
58471;BME280;44258;51.288;12.068;2023-07-13T14:40:00;100419.69;;;29.46;21.80